createdAt,value
2022-10-18T00:01:15.590Z,8.15
2022-10-18T00:03:47.601Z,8.60
2022-10-18T00:06:19.617Z,9.15
2022-10-18T00:08:51.596Z,8.00
2022-10-18T00:11:24.982Z,9.48
2022-10-18T00:13:57.566Z,12.15
2022-10-18T00:16:29.541Z,9.13
2022-10-18T00:19:01.540Z,11.00
2022-10-18T00:21:33.524Z,9.48
2022-10-18T00:24:06.235Z,11.50
2022-10-18T00:26:39.616Z,9.95
2022-10-18T00:29:14.697Z,11.93
2022-10-18T00:31:46.605Z,13.52
2022-10-18T00:34:18.585Z,14.00
2022-10-18T00:36:50.549Z,19.10
2022-10-18T00:39:22.635Z,18.73
2022-10-18T00:41:56.089Z,19.00
2022-10-18T00:45:01.046Z,19.40
2022-10-18T00:47:34.914Z,16.20
2022-10-18T00:50:09.104Z,20.67
2022-10-18T00:52:43.734Z,20.52
2022-10-18T00:55:15.677Z,22.40
2022-10-18T00:57:49.933Z,20.95
2022-10-18T01:00:22.142Z,21.10
2022-10-18T01:02:54.261Z,20.67
2022-10-18T01:05:26.643Z,28.10
2022-10-18T01:08:32.554Z,24.77
2022-10-18T01:11:32.821Z,23.83
2022-10-18T01:14:19.189Z,26.08
2022-10-18T01:16:56.631Z,25.92
2022-10-18T01:19:57.837Z,24.27
2022-10-18T01:22:37.958Z,26.23
2022-10-18T01:25:30.295Z,27.52
2022-10-18T01:28:13.262Z,23.70
2022-10-18T01:30:58.785Z,21.63
2022-10-18T01:33:38.159Z,22.63
2022-10-18T01:36:17.997Z,26.73
2022-10-18T01:38:53.372Z,22.77
2022-10-18T01:41:27.177Z,22.58
2022-10-18T01:44:02.093Z,22.55
2022-10-18T01:46:37.380Z,24.50
2022-10-18T01:49:09.292Z,23.50
2022-10-18T01:51:41.208Z,22.15
2022-10-18T01:54:18.082Z,23.05
2022-10-18T01:56:56.930Z,26.00
2022-10-18T01:59:39.659Z,23.35
2022-10-18T02:02:24.284Z,24.77
2022-10-18T02:05:02.820Z,24.73
2022-10-18T02:07:46.654Z,25.88
2022-10-18T02:10:30.610Z,25.48
2022-10-18T02:13:02.995Z,26.85
2022-10-18T02:15:39.085Z,28.95
2022-10-18T02:18:17.913Z,26.13
2022-10-18T02:20:51.794Z,28.65
2022-10-18T02:23:26.833Z,23.98
2022-10-18T02:25:58.884Z,27.25
2022-10-18T02:28:31.363Z,24.10
2022-10-18T02:31:09.308Z,21.95
2022-10-18T02:33:49.642Z,22.05
2022-10-18T02:39:01.460Z,23.77
2022-10-18T02:41:34.075Z,21.17
2022-10-18T02:44:05.978Z,26.00
2022-10-18T02:46:38.706Z,21.35
2022-10-18T02:49:12.074Z,21.58
2022-10-18T02:51:44.054Z,20.83
2022-10-18T02:54:16.057Z,19.45
2022-10-18T02:56:48.017Z,19.52
2022-10-18T02:59:20.034Z,17.73
2022-10-18T03:01:51.978Z,18.35
2022-10-18T03:04:25.403Z,21.10
2022-10-18T03:06:57.341Z,19.25
2022-10-18T03:09:29.353Z,19.73
2022-10-18T03:12:01.285Z,17.65
2022-10-18T03:14:33.307Z,19.05
2022-10-18T03:17:05.245Z,17.35
2022-10-18T03:19:38.825Z,17.15
2022-10-18T03:22:10.712Z,16.02
2022-10-18T03:24:42.666Z,15.00
2022-10-18T03:27:14.609Z,14.68
2022-10-18T03:29:46.775Z,13.35
2022-10-18T03:32:19.590Z,10.35
2022-10-18T03:34:52.915Z,10.77
2022-10-18T03:37:24.871Z,10.00
2022-10-18T03:39:56.868Z,10.50
2022-10-18T03:42:28.941Z,9.70
2022-10-18T03:45:00.945Z,8.70
2022-10-18T03:47:32.941Z,7.85
2022-10-18T03:50:06.777Z,7.40
2022-10-18T03:52:38.668Z,7.03
2022-10-18T03:55:10.612Z,7.03
2022-10-18T03:57:42.530Z,5.85
2022-10-18T04:00:14.670Z,6.10
2022-10-18T04:02:46.780Z,4.78
2022-10-18T04:05:20.607Z,3.53
2022-10-18T04:07:52.609Z,4.03
2022-10-18T04:10:24.601Z,3.78
2022-10-18T04:12:56.489Z,2.67
2022-10-18T04:15:28.392Z,3.00
2022-10-18T04:18:00.751Z,3.22
2022-10-18T04:20:34.033Z,3.45
2022-10-18T04:23:05.954Z,3.58
2022-10-18T04:25:37.886Z,3.90
2022-10-18T04:28:09.828Z,3.38
2022-10-18T04:30:41.748Z,2.83
2022-10-18T04:33:13.756Z,3.85
2022-10-18T04:35:50.691Z,3.28
2022-10-18T04:38:22.568Z,3.85
2022-10-18T04:40:54.510Z,5.20
2022-10-18T04:43:26.396Z,3.33
2022-10-18T04:45:58.375Z,3.35
2022-10-18T04:48:30.319Z,3.60
2022-10-18T04:51:03.887Z,3.97
2022-10-18T04:53:35.845Z,3.25
2022-10-18T04:56:08.718Z,3.17
2022-10-18T04:58:40.670Z,3.08
2022-10-18T05:01:12.865Z,3.58
2022-10-18T05:03:44.984Z,3.13
2022-10-18T05:06:18.331Z,3.05
2022-10-18T05:08:50.313Z,3.15
2022-10-18T05:11:22.277Z,3.42
2022-10-18T05:13:54.471Z,3.97
2022-10-18T05:16:28.410Z,4.07
2022-10-18T05:19:00.431Z,4.57
2022-10-18T05:21:34.256Z,3.75
2022-10-18T05:24:06.805Z,4.68
2022-10-18T05:26:38.787Z,5.10
2022-10-18T05:29:10.942Z,5.00
2022-10-18T05:31:43.065Z,5.57
2022-10-18T05:34:15.083Z,4.45
2022-10-18T05:36:49.954Z,4.68
2022-10-18T05:39:22.138Z,4.57
2022-10-18T05:41:54.193Z,3.70
2022-10-18T05:44:26.208Z,3.30
2022-10-18T05:46:58.222Z,3.40
2022-10-18T05:49:30.185Z,3.97
2022-10-18T05:52:03.716Z,2.90
2022-10-18T05:54:35.682Z,3.42
2022-10-18T05:57:07.670Z,3.35
2022-10-18T05:59:39.690Z,2.80
2022-10-18T06:02:12.369Z,3.42
2022-10-18T06:04:44.336Z,3.65
2022-10-18T06:07:17.726Z,4.00
2022-10-18T06:09:49.723Z,2.97
2022-10-18T06:12:21.664Z,4.28
2022-10-18T06:14:53.784Z,3.50
2022-10-18T06:17:26.803Z,3.58
2022-10-18T06:20:02.130Z,2.65
2022-10-18T06:22:35.614Z,3.10
2022-10-18T06:25:08.192Z,3.13
2022-10-18T06:27:40.094Z,2.95
2022-10-18T06:30:12.273Z,3.00
2022-10-18T06:32:44.174Z,3.08
2022-10-18T06:35:16.323Z,3.13
2022-10-18T06:37:49.632Z,3.13
2022-10-18T06:40:21.555Z,3.60
2022-10-18T06:43:00.654Z,3.60
2022-10-18T06:45:42.621Z,2.72
2022-10-18T06:48:14.659Z,3.35
2022-10-18T06:50:52.267Z,3.78
2022-10-18T06:53:26.722Z,3.00
2022-10-18T06:56:03.179Z,2.85
2022-10-18T06:58:35.708Z,3.00
2022-10-18T07:01:09.010Z,3.35
2022-10-18T07:03:40.981Z,3.08
2022-10-18T07:06:14.517Z,2.65
2022-10-18T07:08:48.980Z,3.33
2022-10-18T07:11:24.224Z,3.22
2022-10-18T07:14:04.853Z,3.10
2022-10-18T07:16:36.897Z,2.97
2022-10-18T07:19:08.827Z,3.50
2022-10-18T07:21:40.790Z,3.15
2022-10-18T07:24:14.253Z,3.30
2022-10-18T07:26:46.229Z,3.83
2022-10-18T07:29:18.162Z,3.33
2022-10-18T07:31:50.178Z,3.20
2022-10-18T07:34:22.104Z,3.22
2022-10-18T07:36:54.074Z,2.83
2022-10-18T07:39:27.388Z,3.33
2022-10-18T07:41:59.349Z,2.72
2022-10-18T07:44:31.407Z,2.40
2022-10-18T07:47:03.385Z,3.17
2022-10-18T07:49:35.302Z,2.95
2022-10-18T07:52:07.295Z,2.55
2022-10-18T07:54:40.661Z,2.85
2022-10-18T07:57:12.738Z,2.58
2022-10-18T07:59:46.480Z,2.15
2022-10-18T08:02:18.458Z,2.83
2022-10-18T08:04:50.557Z,2.38
2022-10-18T08:07:22.551Z,1.90
2022-10-18T08:09:55.858Z,2.35
2022-10-18T08:12:27.863Z,2.30
2022-10-18T08:14:59.811Z,2.10
2022-10-18T08:17:32.001Z,1.80
2022-10-18T08:20:12.065Z,2.10
2022-10-18T08:22:44.460Z,1.70
2022-10-18T08:25:18.101Z,1.77
2022-10-18T08:27:50.066Z,1.38
2022-10-18T08:30:23.411Z,1.75
2022-10-18T08:32:55.389Z,2.13
2022-10-18T08:35:27.382Z,1.50
2022-10-18T08:37:59.626Z,1.63
2022-10-18T08:40:34.773Z,1.92
2022-10-18T08:43:17.024Z,1.65
2022-10-18T08:45:54.627Z,1.58
2022-10-18T08:48:33.954Z,1.42
2022-10-18T08:51:16.709Z,1.77
2022-10-18T08:53:59.510Z,1.67
2022-10-18T08:56:34.636Z,1.35
2022-10-18T08:59:10.103Z,2.40
2022-10-18T09:01:53.408Z,1.80
2022-10-18T09:04:42.438Z,1.60
2022-10-18T09:07:30.219Z,1.35
2022-10-18T09:10:10.640Z,1.33
2022-10-18T09:13:00.579Z,1.35
2022-10-18T09:15:41.833Z,1.55
2022-10-18T09:18:37.602Z,1.42
2022-10-18T09:21:19.512Z,1.50
2022-10-18T09:24:02.383Z,1.63
2022-10-18T09:26:43.421Z,1.70
2022-10-18T09:29:39.173Z,1.60
2022-10-18T09:32:25.521Z,1.85
2022-10-18T09:35:01.412Z,1.35
2022-10-18T09:37:35.030Z,1.60
2022-10-18T09:40:18.173Z,1.27
2022-10-18T09:42:55.746Z,1.10
2022-10-18T09:45:32.013Z,1.15
2022-10-18T09:48:11.973Z,1.20
2022-10-18T09:50:49.361Z,2.00
2022-10-18T09:53:33.905Z,1.40
2022-10-18T09:56:10.228Z,1.40
2022-10-18T09:58:44.630Z,1.42
2022-10-18T10:01:21.181Z,1.77
2022-10-18T10:03:53.476Z,1.60
2022-10-18T10:06:27.776Z,1.80
2022-10-18T10:09:01.750Z,1.50
2022-10-18T10:11:36.615Z,1.90
2022-10-18T10:14:13.469Z,2.03
2022-10-18T10:16:51.764Z,2.05
2022-10-18T10:19:28.353Z,2.38
2022-10-18T10:22:05.683Z,2.97
2022-10-18T10:24:46.649Z,3.03
2022-10-18T10:27:21.788Z,3.30
2022-10-18T10:29:57.682Z,2.90
2022-10-18T10:32:46.301Z,2.30
2022-10-18T10:35:42.117Z,2.80
2022-10-18T10:38:26.843Z,3.10
2022-10-18T10:40:59.915Z,3.28
2022-10-18T10:43:39.269Z,3.53
2022-10-18T10:46:14.127Z,3.65
2022-10-18T10:48:50.725Z,3.95
2022-10-18T10:51:29.892Z,3.17
2022-10-18T10:54:04.162Z,3.10
2022-10-18T10:56:37.752Z,3.47
2022-10-18T10:59:15.808Z,4.22
2022-10-18T11:01:50.210Z,3.22
2022-10-18T11:04:27.272Z,2.35
2022-10-18T11:07:06.945Z,2.78
2022-10-18T11:09:51.692Z,1.85
2022-10-18T11:12:30.812Z,1.50
2022-10-18T11:15:21.189Z,1.20
2022-10-18T11:18:04.842Z,1.42
2022-10-18T11:20:43.229Z,1.60
2022-10-18T11:23:17.145Z,1.70
2022-10-18T11:26:01.744Z,1.58
2022-10-18T11:28:54.178Z,6.82
2022-10-18T11:31:33.033Z,2.22
2022-10-18T11:34:23.003Z,6.68
2022-10-18T11:37:27.085Z,7.07
2022-10-18T11:40:11.233Z,1.52
2022-10-18T11:42:51.206Z,3.60
2022-10-18T11:45:33.184Z,1.30
2022-10-18T11:48:23.265Z,6.93
2022-10-18T11:51:04.080Z,6.53
2022-10-18T11:53:50.937Z,7.57
2022-10-18T11:56:30.443Z,12.07
2022-10-18T11:59:18.031Z,13.93
2022-10-18T12:02:03.842Z,10.15
2022-10-18T12:04:49.006Z,3.03
2022-10-18T12:07:34.532Z,2.45
2022-10-18T12:10:19.478Z,2.90
2022-10-18T12:13:04.337Z,3.20
2022-10-18T12:15:40.202Z,3.78
2022-10-18T12:18:16.475Z,2.92
2022-10-18T12:20:51.258Z,3.13
2022-10-18T12:23:38.138Z,2.55
2022-10-18T12:26:11.590Z,2.40
2022-10-18T12:28:52.805Z,3.10
2022-10-18T12:31:28.078Z,3.13
2022-10-18T12:34:04.762Z,3.60
2022-10-18T12:39:43.779Z,3.42
2022-10-18T12:42:27.247Z,3.50
2022-10-18T12:45:04.746Z,3.10
2022-10-18T12:47:36.855Z,2.60
2022-10-18T12:50:30.010Z,1.70
2022-10-18T12:53:12.626Z,1.30
2022-10-18T12:55:45.944Z,0.82
2022-10-18T12:58:28.633Z,0.90
2022-10-18T13:01:04.272Z,1.00
2022-10-18T13:03:54.787Z,0.88
2022-10-18T13:07:05.116Z,0.85
2022-10-18T13:09:39.265Z,1.05
2022-10-18T13:12:45.659Z,1.70
2022-10-18T13:15:37.348Z,1.27
2022-10-18T13:18:22.838Z,1.10
2022-10-18T13:21:08.865Z,1.38
2022-10-18T13:24:01.996Z,0.93
2022-10-18T13:26:42.298Z,0.80
2022-10-18T13:29:30.213Z,0.95
2022-10-18T13:34:54.802Z,0.88
2022-10-18T13:37:29.226Z,1.45
2022-10-18T13:40:24.916Z,1.23
2022-10-18T13:42:56.908Z,0.80
2022-10-18T13:45:55.536Z,0.90
2022-10-18T13:48:48.883Z,0.80
2022-10-18T13:51:47.162Z,0.70
2022-10-18T13:54:54.897Z,1.00
2022-10-18T13:57:49.177Z,1.02
2022-10-18T14:00:36.068Z,1.60
2022-10-18T14:03:55.738Z,1.67
2022-10-18T14:06:25.369Z,1.08
2022-10-18T14:09:09.451Z,1.00
2022-10-18T14:11:53.975Z,0.80
2022-10-18T14:14:34.374Z,1.60
2022-10-18T14:19:55.249Z,0.88
2022-10-18T14:22:34.928Z,1.48
2022-10-18T14:25:20.199Z,1.70
2022-10-18T14:28:04.101Z,1.77
2022-10-18T14:30:36.959Z,0.85
2022-10-18T14:33:25.051Z,1.20
2022-10-18T14:36:03.062Z,1.00
2022-10-18T14:38:38.729Z,1.15
2022-10-18T14:41:18.041Z,0.82
2022-10-18T14:43:50.369Z,0.82
2022-10-18T14:46:28.956Z,1.33
2022-10-18T14:49:04.908Z,1.27
2022-10-18T14:51:38.991Z,1.00
2022-10-18T14:54:16.293Z,1.70
2022-10-18T14:56:48.863Z,1.20
2022-10-18T14:59:23.881Z,1.13
2022-10-18T15:01:58.456Z,1.98
2022-10-18T15:04:34.251Z,2.97
2022-10-18T15:07:13.312Z,4.68
2022-10-18T15:09:47.486Z,5.55
2022-10-18T15:12:19.805Z,5.55
2022-10-18T15:14:52.939Z,6.57
2022-10-18T15:17:27.318Z,6.55
2022-10-18T15:20:05.938Z,6.57
2022-10-18T15:22:38.341Z,5.38
2022-10-18T15:25:17.340Z,5.15
2022-10-18T15:27:51.415Z,4.20
2022-10-18T15:30:27.675Z,3.60
2022-10-18T15:33:01.638Z,3.92
2022-10-18T15:35:35.666Z,4.25
2022-10-18T15:38:15.175Z,3.25
2022-10-18T15:40:48.539Z,8.77
2022-10-18T15:43:36.423Z,8.48
2022-10-18T15:46:29.969Z,3.88
2022-10-18T15:49:56.170Z,4.10
2022-10-18T15:52:38.200Z,4.35
2022-10-18T15:55:48.801Z,4.80
2022-10-18T15:58:25.460Z,5.85
2022-10-18T16:01:00.359Z,12.40
2022-10-18T16:03:35.132Z,12.63
2022-10-18T16:06:11.353Z,19.50
2022-10-18T16:08:47.687Z,84.78
2022-10-18T16:11:21.758Z,175.18
2022-10-18T16:13:57.954Z,78.57
2022-10-18T16:16:33.154Z,87.32
2022-10-18T16:19:05.646Z,43.05
2022-10-18T16:21:39.105Z,11.02
2022-10-18T16:24:11.633Z,9.25
2022-10-18T16:26:43.685Z,8.65
2022-10-18T16:29:21.705Z,9.75
2022-10-18T16:31:57.076Z,10.27
2022-10-18T16:34:29.109Z,11.57
2022-10-18T16:37:01.042Z,16.15
2022-10-18T16:39:34.973Z,12.60
2022-10-18T16:42:06.869Z,9.88
2022-10-18T16:44:40.205Z,8.95
2022-10-18T16:47:12.136Z,8.95
2022-10-18T16:49:45.229Z,9.00
2022-10-18T16:52:17.113Z,7.10
2022-10-18T16:54:49.041Z,4.70
2022-10-18T16:57:20.939Z,3.78
2022-10-18T16:59:54.237Z,3.03
2022-10-18T17:02:26.141Z,2.72
2022-10-18T17:04:58.118Z,2.65
2022-10-18T17:07:29.996Z,6.38
2022-10-18T17:10:01.927Z,4.20
2022-10-18T17:12:34.148Z,4.57
2022-10-18T17:15:08.788Z,4.30
2022-10-18T17:17:40.997Z,6.43
2022-10-18T17:20:21.565Z,7.60
2022-10-18T17:22:54.236Z,8.25
2022-10-18T17:25:26.206Z,6.20
2022-10-18T17:27:58.122Z,9.57
2022-10-18T17:30:31.807Z,4.68
2022-10-18T17:33:03.807Z,17.40
2022-10-18T17:35:35.769Z,21.08
2022-10-18T17:38:07.895Z,12.77
2022-10-18T17:40:40.814Z,36.40
2022-10-18T17:43:13.837Z,25.42
2022-10-18T17:45:54.590Z,36.45
2022-10-18T17:48:29.184Z,16.25
2022-10-18T17:51:05.900Z,15.00
2022-10-18T17:53:38.315Z,7.72
2022-10-18T17:56:10.677Z,12.13
2022-10-18T17:58:46.992Z,19.77
2022-10-18T18:01:22.976Z,17.45
2022-10-18T18:03:56.728Z,19.00
2022-10-18T18:06:31.411Z,18.23
2022-10-18T18:09:07.449Z,8.63
2022-10-18T18:11:41.051Z,8.93
2022-10-18T18:14:13.335Z,8.68
2022-10-18T18:16:47.456Z,11.80
2022-10-18T18:19:19.781Z,14.52
2022-10-18T18:21:53.724Z,11.75
2022-10-18T18:24:26.354Z,14.18
2022-10-18T18:26:58.542Z,17.27
2022-10-18T18:29:30.484Z,14.25
2022-10-18T18:32:03.987Z,12.55
2022-10-18T18:34:36.658Z,10.00
2022-10-18T18:37:09.142Z,8.07
2022-10-18T18:39:41.286Z,6.30
2022-10-18T18:42:13.269Z,5.32
2022-10-18T18:44:46.099Z,6.30
2022-10-18T18:47:21.799Z,6.78
2022-10-18T18:49:53.997Z,7.05
2022-10-18T18:52:26.016Z,8.70
2022-10-18T18:54:57.941Z,9.38
2022-10-18T18:57:30.037Z,8.43
2022-10-18T19:00:02.097Z,10.60
2022-10-18T19:02:35.453Z,12.90
2022-10-18T19:05:07.662Z,22.70
2022-10-18T19:07:39.633Z,22.35
2022-10-18T19:10:11.544Z,19.63
2022-10-18T19:12:43.483Z,16.65
2022-10-18T19:15:15.526Z,15.10
2022-10-18T19:17:49.024Z,18.65
2022-10-18T19:20:21.080Z,16.42
2022-10-18T19:22:53.650Z,16.10
2022-10-18T19:25:26.998Z,15.98
2022-10-18T19:27:59.108Z,13.68
2022-10-18T19:30:31.042Z,15.07
2022-10-18T19:33:04.818Z,16.45
2022-10-18T19:35:37.385Z,12.65
2022-10-18T19:38:09.339Z,13.15
2022-10-18T19:40:41.216Z,11.25
2022-10-18T19:43:13.194Z,10.18
2022-10-18T19:45:45.098Z,7.75
2022-10-18T19:48:18.554Z,9.40
2022-10-18T19:50:50.839Z,7.75
2022-10-18T19:53:22.833Z,5.22
2022-10-18T19:55:58.524Z,7.85
2022-10-18T19:58:30.703Z,10.18
2022-10-18T20:01:02.878Z,8.50
2022-10-18T20:03:36.210Z,9.80
2022-10-18T20:06:08.387Z,8.10
2022-10-18T20:08:40.406Z,9.13
2022-10-18T20:11:14.400Z,10.85
2022-10-18T20:13:46.320Z,7.78
2022-10-18T20:16:23.030Z,10.48
2022-10-18T20:19:00.587Z,11.65
2022-10-18T20:21:35.639Z,10.50
2022-10-18T20:24:09.370Z,11.30
2022-10-18T20:26:43.414Z,9.25
2022-10-18T20:29:15.394Z,7.53
2022-10-18T20:31:47.631Z,9.30
2022-10-18T20:34:25.662Z,8.68
2022-10-18T20:36:57.632Z,10.02
2022-10-18T20:39:29.654Z,11.32
2022-10-18T20:42:01.627Z,11.90
2022-10-18T20:44:34.060Z,9.57
2022-10-18T20:47:06.014Z,8.40
2022-10-18T20:49:39.543Z,8.18
2022-10-18T20:52:11.524Z,8.48
2022-10-18T20:54:43.471Z,8.75
2022-10-18T20:57:15.481Z,6.72
2022-10-18T20:59:48.788Z,6.25
2022-10-18T21:02:20.752Z,7.07
2022-10-18T21:04:54.064Z,6.13
2022-10-18T21:07:26.000Z,5.90
2022-10-18T21:09:57.950Z,4.53
2022-10-18T21:12:30.058Z,6.38
2022-10-18T21:15:02.169Z,6.55
2022-10-18T21:17:34.151Z,6.40
2022-10-18T21:20:09.742Z,11.68
2022-10-18T21:22:41.658Z,6.63
2022-10-18T21:25:13.802Z,5.93
2022-10-18T21:27:45.829Z,5.03
2022-10-18T21:30:17.785Z,4.97
2022-10-18T21:32:52.546Z,4.15
2022-10-18T21:35:25.856Z,3.85
2022-10-18T21:37:57.788Z,3.63
2022-10-18T21:40:29.907Z,5.10
2022-10-18T21:43:01.856Z,5.55
2022-10-18T21:45:33.761Z,4.95
2022-10-18T21:48:06.107Z,4.03
2022-10-18T21:50:39.348Z,3.67
2022-10-18T21:53:11.299Z,2.78
2022-10-18T21:55:43.223Z,2.28
2022-10-18T21:58:15.186Z,3.00
2022-10-18T22:00:47.140Z,3.63
2022-10-18T22:03:19.103Z,2.20
2022-10-18T22:05:58.852Z,2.80
2022-10-18T22:08:30.834Z,2.38
2022-10-18T22:11:03.042Z,2.80
2022-10-18T22:13:35.075Z,2.92
2022-10-18T22:16:08.695Z,2.70
2022-10-18T22:18:41.112Z,2.45
2022-10-18T22:21:16.095Z,2.45
2022-10-18T22:23:50.261Z,2.70
2022-10-18T22:26:24.113Z,2.78
2022-10-18T22:28:57.569Z,3.55
2022-10-18T22:31:31.531Z,3.60
2022-10-18T22:34:05.513Z,6.47
2022-10-18T22:36:39.265Z,4.80
2022-10-18T22:39:13.138Z,4.32
2022-10-18T22:41:45.427Z,5.13
2022-10-18T22:44:17.329Z,5.82
2022-10-18T22:46:49.534Z,9.85
2022-10-18T22:49:21.474Z,9.15
2022-10-18T22:51:55.033Z,8.82
2022-10-18T22:54:27.011Z,7.22
2022-10-18T22:56:58.926Z,7.57
2022-10-18T22:59:30.901Z,5.55
2022-10-18T23:02:02.891Z,3.20
2022-10-18T23:04:34.966Z,3.80
2022-10-18T23:07:08.266Z,3.30
2022-10-18T23:12:17.321Z,2.10
2022-10-18T23:14:49.269Z,2.47
2022-10-18T23:17:21.168Z,2.38
2022-10-18T23:19:53.064Z,1.20
2022-10-18T23:22:26.361Z,2.25
2022-10-18T23:24:58.325Z,1.60
2022-10-18T23:27:30.419Z,1.67
2022-10-18T23:30:02.609Z,1.40
2022-10-18T23:32:34.812Z,1.25
2022-10-18T23:35:07.609Z,0.98
2022-10-18T23:37:40.886Z,1.23
2022-10-18T23:40:13.241Z,1.27
2022-10-18T23:42:45.554Z,1.15
2022-10-18T23:45:17.591Z,2.03
2022-10-18T23:47:49.548Z,2.38
2022-10-18T23:50:21.470Z,4.05
2022-10-18T23:52:54.778Z,2.75
2022-10-18T23:55:26.803Z,1.92
2022-10-18T23:57:58.958Z,1.35
